sensor_id;sensor_type;location;lat;lon;timestamp;temperature;humidity
37956;DHT22;23776;51.592;7.180;2022-08-03T00:00:40;21.20;15.80
37956;DHT22;23776;51.592;7.180;2022-08-03T00:03:05;21.20;99.90
37956;DHT22;23776;51.592;7.180;2022-08-03T00:05:31;21.10;99.90
37956;DHT22;23776;51.592;7.180;2022-08-03T00:08:00;21.10;99.90
37956;DHT22;23776;51.592;7.180;2022-08-03T00:10:25;21.00;99.90
37956;DHT22;23776;51.592;7.180;2022-08-03T00:12:52;21.00;1.00
37956;DHT22;23776;51.592;7.180;2022-08-03T00:15:18;20.90;99.90
37956;DHT22;23776;51.592;7.180;2022-08-03T00:17:44;20.90;99.90
37956;DHT22;23776;51.592;7.180;2022-08-03T00:20:10;20.90;99.90
37956;DHT22;23776;51.592;7.180;2022-08-03T00:22:36;20.90;99.90
37956;DHT22;23776;51.592;7.180;2022-08-03T00:25:03;20.90;98.90
37956;DHT22;23776;51.592;7.180;2022-08-03T00:27:28;20.80;92.80
37956;DHT22;23776;51.592;7.180;2022-08-03T00:29:54;20.80;99.90
37956;DHT22;23776;51.592;7.180;2022-08-03T00:32:19;18.50;69.40
37956;DHT22;23776;51.592;7.180;2022-08-03T00:34:45;20.80;99.90
37956;DHT22;23776;51.592;7.180;2022-08-03T00:37:10;20.70;99.90
37956;DHT22;23776;51.592;7.180;2022-08-03T00:39:36;20.70;99.90
37956;DHT22;23776;51.592;7.180;2022-08-03T00:42:03;20.70;99.90
37956;DHT22;23776;51.592;7.180;2022-08-03T00:44:29;20.60;99.90
37956;DHT22;23776;51.592;7.180;2022-08-03T00:46:54;20.60;99.90
37956;DHT22;23776;51.592;7.180;2022-08-03T00:49:20;20.60;99.90
37956;DHT22;23776;51.592;7.180;2022-08-03T00:51:46;20.50;99.90
37956;DHT22;23776;51.592;7.180;2022-08-03T00:54:13;20.60;99.90
37956;DHT22;23776;51.592;7.180;2022-08-03T00:56:40;20.60;99.90
37956;DHT22;23776;51.592;7.180;2022-08-03T00:59:06;20.50;99.90
37956;DHT22;23776;51.592;7.180;2022-08-03T01:01:33;20.50;99.90
37956;DHT22;23776;51.592;7.180;2022-08-03T01:03:59;20.50;99.90
37956;DHT22;23776;51.592;7.180;2022-08-03T01:06:56;20.40;99.90
37956;DHT22;23776;51.592;7.180;2022-08-03T01:14:57;20.40;1.00
37956;DHT22;23776;51.592;7.180;2022-08-03T01:17:42;20.30;1.00
37956;DHT22;23776;51.592;7.180;2022-08-03T01:20:10;20.30;1.00
37956;DHT22;23776;51.592;7.180;2022-08-03T01:31:41;20.20;1.00
37956;DHT22;23776;51.592;7.180;2022-08-03T01:34:11;20.10;1.00
37956;DHT22;23776;51.592;7.180;2022-08-03T01:36:43;20.10;1.00
37956;DHT22;23776;51.592;7.180;2022-08-03T01:39:14;20.10;1.00
37956;DHT22;23776;51.592;7.180;2022-08-03T01:41:48;20.00;1.00
37956;DHT22;23776;51.592;7.180;2022-08-03T01:44:15;20.00;1.00
37956;DHT22;23776;51.592;7.180;2022-08-03T01:46:41;20.00;1.00
37956;DHT22;23776;51.592;7.180;2022-08-03T01:49:10;20.00;1.00
37956;DHT22;23776;51.592;7.180;2022-08-03T01:51:38;20.00;1.00
37956;DHT22;23776;51.592;7.180;2022-08-03T01:54:08;20.00;1.00
37956;DHT22;23776;51.592;7.180;2022-08-03T01:56:36;20.00;1.00
37956;DHT22;23776;51.592;7.180;2022-08-03T01:59:03;19.90;1.00
37956;DHT22;23776;51.592;7.180;2022-08-03T02:01:31;19.90;1.00
37956;DHT22;23776;51.592;7.180;2022-08-03T02:03:58;20.00;1.00
37956;DHT22;23776;51.592;7.180;2022-08-03T02:06:26;21.50;1.00
37956;DHT22;23776;51.592;7.180;2022-08-03T02:08:53;19.90;1.00
37956;DHT22;23776;51.592;7.180;2022-08-03T02:11:19;19.90;1.00
37956;DHT22;23776;51.592;7.180;2022-08-03T02:13:46;19.80;1.00
37956;DHT22;23776;51.592;7.180;2022-08-03T02:16:12;19.70;1.00
37956;DHT22;23776;51.592;7.180;2022-08-03T02:18:40;19.60;1.00
37956;DHT22;23776;51.592;7.180;2022-08-03T02:21:08;19.60;1.00
37956;DHT22;23776;51.592;7.180;2022-08-03T02:23:36;19.60;1.00
37956;DHT22;23776;51.592;7.180;2022-08-03T02:26:03;19.50;1.00
37956;DHT22;23776;51.592;7.180;2022-08-03T02:28:34;19.60;1.00
37956;DHT22;23776;51.592;7.180;2022-08-03T02:31:04;19.60;1.00
37956;DHT22;23776;51.592;7.180;2022-08-03T02:33:37;19.60;1.00
37956;DHT22;23776;51.592;7.180;2022-08-03T02:36:06;19.50;1.00
37956;DHT22;23776;51.592;7.180;2022-08-03T02:38:34;19.50;1.00
37956;DHT22;23776;51.592;7.180;2022-08-03T02:41:04;19.50;1.00
37956;DHT22;23776;51.592;7.180;2022-08-03T02:43:34;19.50;1.00
37956;DHT22;23776;51.592;7.180;2022-08-03T02:46:00;19.40;1.00
37956;DHT22;23776;51.592;7.180;2022-08-03T02:48:28;19.40;1.00
37956;DHT22;23776;51.592;7.180;2022-08-03T02:50:57;19.30;1.00
37956;DHT22;23776;51.592;7.180;2022-08-03T02:53:25;19.40;3.90
37956;DHT22;23776;51.592;7.180;2022-08-03T02:55:52;19.30;1.00
37956;DHT22;23776;51.592;7.180;2022-08-03T02:58:20;19.40;1.00
37956;DHT22;23776;51.592;7.180;2022-08-03T03:00:49;19.30;1.00
37956;DHT22;23776;51.592;7.180;2022-08-03T03:03:20;19.40;1.00
37956;DHT22;23776;51.592;7.180;2022-08-03T03:05:47;19.40;5.80
37956;DHT22;23776;51.592;7.180;2022-08-03T03:08:16;19.30;1.00
37956;DHT22;23776;51.592;7.180;2022-08-03T03:10:42;19.30;1.00
37956;DHT22;23776;51.592;7.180;2022-08-03T03:13:09;19.30;3.80
37956;DHT22;23776;51.592;7.180;2022-08-03T03:15:35;19.30;1.00
37956;DHT22;23776;51.592;7.180;2022-08-03T03:18:04;19.30;1.00
37956;DHT22;23776;51.592;7.180;2022-08-03T03:20:32;19.30;1.00
37956;DHT22;23776;51.592;7.180;2022-08-03T03:23:01;19.30;4.60
37956;DHT22;23776;51.592;7.180;2022-08-03T03:25:31;19.30;4.50
37956;DHT22;23776;51.592;7.180;2022-08-03T03:27:59;19.20;7.10
37956;DHT22;23776;51.592;7.180;2022-08-03T03:30:25;19.20;6.50
37956;DHT22;23776;51.592;7.180;2022-08-03T03:32:51;19.10;5.30
37956;DHT22;23776;51.592;7.180;2022-08-03T03:35:17;19.10;6.30
37956;DHT22;23776;51.592;7.180;2022-08-03T03:37:43;20.40;22.40
37956;DHT22;23776;51.592;7.180;2022-08-03T03:40:09;19.20;20.20
37956;DHT22;23776;51.592;7.180;2022-08-03T03:42:35;19.10;18.40
37956;DHT22;23776;51.592;7.180;2022-08-03T03:45:06;19.10;14.00
37956;DHT22;23776;51.592;7.180;2022-08-03T03:47:33;19.10;15.50
37956;DHT22;23776;51.592;7.180;2022-08-03T03:50:01;19.10;11.40
37956;DHT22;23776;51.592;7.180;2022-08-03T03:52:26;19.00;11.90
37956;DHT22;23776;51.592;7.180;2022-08-03T03:54:52;19.00;14.20
37956;DHT22;23776;51.592;7.180;2022-08-03T03:57:17;19.00;16.10
37956;DHT22;23776;51.592;7.180;2022-08-03T03:59:43;19.20;19.60
37956;DHT22;23776;51.592;7.180;2022-08-03T04:02:10;19.00;21.50
37956;DHT22;23776;51.592;7.180;2022-08-03T04:04:36;18.90;19.00
37956;DHT22;23776;51.592;7.180;2022-08-03T04:07:26;18.90;18.20
37956;DHT22;23776;51.592;7.180;2022-08-03T04:10:19;19.00;28.00
37956;DHT22;23776;51.592;7.180;2022-08-03T04:13:07;19.00;25.60
37956;DHT22;23776;51.592;7.180;2022-08-03T04:15:37;18.90;22.60
37956;DHT22;23776;51.592;7.180;2022-08-03T04:18:05;18.90;25.00
37956;DHT22;23776;51.592;7.180;2022-08-03T04:20:34;18.90;24.40
37956;DHT22;23776;51.592;7.180;2022-08-03T04:23:01;18.90;22.10
37956;DHT22;23776;51.592;7.180;2022-08-03T04:25:35;18.80;22.40
37956;DHT22;23776;51.592;7.180;2022-08-03T04:28:02;18.90;23.80
37956;DHT22;23776;51.592;7.180;2022-08-03T04:30:29;19.00;28.20
37956;DHT22;23776;51.592;7.180;2022-08-03T04:32:56;19.00;26.00
37956;DHT22;23776;51.592;7.180;2022-08-03T04:35:28;19.00;28.50
37956;DHT22;23776;51.592;7.180;2022-08-03T04:37:58;19.00;28.20
37956;DHT22;23776;51.592;7.180;2022-08-03T04:40:36;19.00;26.50
37956;DHT22;23776;51.592;7.180;2022-08-03T04:43:04;19.10;29.10
37956;DHT22;23776;51.592;7.180;2022-08-03T04:45:30;19.10;29.60
37956;DHT22;23776;51.592;7.180;2022-08-03T04:47:57;19.10;28.10
37956;DHT22;23776;51.592;7.180;2022-08-03T04:50:24;19.10;26.10
37956;DHT22;23776;51.592;7.180;2022-08-03T04:52:52;19.20;29.50
37956;DHT22;23776;51.592;7.180;2022-08-03T04:55:29;19.20;23.00
37956;DHT22;23776;51.592;7.180;2022-08-03T04:57:56;19.30;21.00
37956;DHT22;23776;51.592;7.180;2022-08-03T05:00:22;19.40;24.10
37956;DHT22;23776;51.592;7.180;2022-08-03T05:02:47;19.40;19.80
37956;DHT22;23776;51.592;7.180;2022-08-03T05:05:14;19.40;25.60
37956;DHT22;23776;51.592;7.180;2022-08-03T05:07:40;19.50;26.40
37956;DHT22;23776;51.592;7.180;2022-08-03T05:10:08;19.50;20.80
37956;DHT22;23776;51.592;7.180;2022-08-03T05:12:33;19.60;20.00
37956;DHT22;23776;51.592;7.180;2022-08-03T05:15:00;19.60;16.90
37956;DHT22;23776;51.592;7.180;2022-08-03T05:17:26;19.80;19.20
37956;DHT22;23776;51.592;7.180;2022-08-03T05:19:52;19.90;21.10
37956;DHT22;23776;51.592;7.180;2022-08-03T05:22:18;19.90;16.10
37956;DHT22;23776;51.592;7.180;2022-08-03T05:24:44;19.90;14.10
37956;DHT22;23776;51.592;7.180;2022-08-03T05:27:10;20.00;12.50
37956;DHT22;23776;51.592;7.180;2022-08-03T05:29:42;20.10;9.30
37956;DHT22;23776;51.592;7.180;2022-08-03T05:32:07;20.30;3.80
37956;DHT22;23776;51.592;7.180;2022-08-03T05:34:33;20.30;5.00
37956;DHT22;23776;51.592;7.180;2022-08-03T05:36:58;20.40;1.00
37956;DHT22;23776;51.592;7.180;2022-08-03T05:39:24;20.50;1.00
37956;DHT22;23776;51.592;7.180;2022-08-03T05:41:49;20.50;1.00
37956;DHT22;23776;51.592;7.180;2022-08-03T05:44:15;20.70;1.00
37956;DHT22;23776;51.592;7.180;2022-08-03T05:46:40;20.80;1.00
37956;DHT22;23776;51.592;7.180;2022-08-03T05:49:06;21.00;1.00
37956;DHT22;23776;51.592;7.180;2022-08-03T05:51:32;21.00;99.90
37956;DHT22;23776;51.592;7.180;2022-08-03T05:53:57;21.20;99.90
37956;DHT22;23776;51.592;7.180;2022-08-03T05:56:23;21.40;99.90
37956;DHT22;23776;51.592;7.180;2022-08-03T05:58:52;21.50;99.90
37956;DHT22;23776;51.592;7.180;2022-08-03T06:01:19;21.60;1.00
37956;DHT22;23776;51.592;7.180;2022-08-03T06:03:48;21.60;1.00
37956;DHT22;23776;51.592;7.180;2022-08-03T06:06:15;21.80;1.00
37956;DHT22;23776;51.592;7.180;2022-08-03T06:08:41;22.10;99.90
37956;DHT22;23776;51.592;7.180;2022-08-03T06:11:07;22.10;99.90
37956;DHT22;23776;51.592;7.180;2022-08-03T06:13:34;22.10;99.90
37956;DHT22;23776;51.592;7.180;2022-08-03T06:15:59;22.20;99.90
37956;DHT22;23776;51.592;7.180;2022-08-03T06:18:26;22.30;1.00
37956;DHT22;23776;51.592;7.180;2022-08-03T06:20:52;22.40;99.90
37956;DHT22;23776;51.592;7.180;2022-08-03T06:23:18;22.50;99.90
37956;DHT22;23776;51.592;7.180;2022-08-03T06:25:44;22.60;1.00
37956;DHT22;23776;51.592;7.180;2022-08-03T06:28:10;22.70;1.00
37956;DHT22;23776;51.592;7.180;2022-08-03T06:30:38;22.80;99.90
37956;DHT22;23776;51.592;7.180;2022-08-03T06:33:04;22.90;32.80
37956;DHT22;23776;51.592;7.180;2022-08-03T06:35:29;23.00;99.90
37956;DHT22;23776;51.592;7.180;2022-08-03T06:37:56;23.10;99.90
37956;DHT22;23776;51.592;7.180;2022-08-03T06:40:23;23.20;1.00
37956;DHT22;23776;51.592;7.180;2022-08-03T06:43:00;23.30;99.90
37956;DHT22;23776;51.592;7.180;2022-08-03T06:45:27;23.40;99.90
37956;DHT22;23776;51.592;7.180;2022-08-03T06:48:07;23.40;99.90
37956;DHT22;23776;51.592;7.180;2022-08-03T06:50:34;23.50;1.00
37956;DHT22;23776;51.592;7.180;2022-08-03T06:53:01;23.60;1.00
37956;DHT22;23776;51.592;7.180;2022-08-03T06:55:27;23.60;99.90
37956;DHT22;23776;51.592;7.180;2022-08-03T06:57:52;23.80;99.90
37956;DHT22;23776;51.592;7.180;2022-08-03T07:00:19;23.90;99.90
37956;DHT22;23776;51.592;7.180;2022-08-03T07:02:46;24.00;1.00
37956;DHT22;23776;51.592;7.180;2022-08-03T07:05:11;24.10;99.90
37956;DHT22;23776;51.592;7.180;2022-08-03T07:07:38;24.10;99.90
37956;DHT22;23776;51.592;7.180;2022-08-03T07:10:05;24.20;99.90
37956;DHT22;23776;51.592;7.180;2022-08-03T07:12:31;24.30;92.40
37956;DHT22;23776;51.592;7.180;2022-08-03T07:14:59;24.40;65.20
37956;DHT22;23776;51.592;7.180;2022-08-03T07:17:24;24.40;1.00
37956;DHT22;23776;51.592;7.180;2022-08-03T07:19:50;24.50;1.00
37956;DHT22;23776;51.592;7.180;2022-08-03T07:22:16;24.60;1.00
37956;DHT22;23776;51.592;7.180;2022-08-03T07:24:42;24.70;99.90
37956;DHT22;23776;51.592;7.180;2022-08-03T07:27:08;24.80;99.90
37956;DHT22;23776;51.592;7.180;2022-08-03T07:29:34;24.90;99.90
37956;DHT22;23776;51.592;7.180;2022-08-03T07:32:00;25.00;99.90
37956;DHT22;23776;51.592;7.180;2022-08-03T07:34:26;25.00;42.80
37956;DHT22;23776;51.592;7.180;2022-08-03T07:36:52;25.00;17.90
37956;DHT22;23776;51.592;7.180;2022-08-03T07:39:17;25.00;1.00
37956;DHT22;23776;51.592;7.180;2022-08-03T07:41:43;25.00;1.00
37956;DHT22;23776;51.592;7.180;2022-08-03T07:44:09;25.10;1.00
37956;DHT22;23776;51.592;7.180;2022-08-03T07:46:35;25.30;1.00
37956;DHT22;23776;51.592;7.180;2022-08-03T07:49:00;25.40;99.90
37956;DHT22;23776;51.592;7.180;2022-08-03T07:51:26;25.40;99.90
37956;DHT22;23776;51.592;7.180;2022-08-03T07:53:52;25.50;99.90
37956;DHT22;23776;51.592;7.180;2022-08-03T07:56:18;25.50;99.90
37956;DHT22;23776;51.592;7.180;2022-08-03T07:58:43;25.80;98.10
37956;DHT22;23776;51.592;7.180;2022-08-03T08:01:09;25.70;60.00
37956;DHT22;23776;51.592;7.180;2022-08-03T08:03:36;25.80;55.30
37956;DHT22;23776;51.592;7.180;2022-08-03T08:06:02;25.90;1.00
37956;DHT22;23776;51.592;7.180;2022-08-03T08:08:27;26.00;1.00
37956;DHT22;23776;51.592;7.180;2022-08-03T08:10:53;26.10;1.00
37956;DHT22;23776;51.592;7.180;2022-08-03T08:13:19;26.20;1.00
37956;DHT22;23776;51.592;7.180;2022-08-03T08:15:44;26.30;1.00
37956;DHT22;23776;51.592;7.180;2022-08-03T08:18:10;26.40;99.90
37956;DHT22;23776;51.592;7.180;2022-08-03T08:20:35;26.40;99.90
37956;DHT22;23776;51.592;7.180;2022-08-03T08:23:06;26.60;99.90
37956;DHT22;23776;51.592;7.180;2022-08-03T08:25:32;26.70;99.90
37956;DHT22;23776;51.592;7.180;2022-08-03T08:27:58;26.80;99.90
37956;DHT22;23776;51.592;7.180;2022-08-03T08:30:29;26.90;99.90
37956;DHT22;23776;51.592;7.180;2022-08-03T08:32:55;27.00;99.90
37956;DHT22;23776;51.592;7.180;2022-08-03T08:35:22;27.10;89.80
37956;DHT22;23776;51.592;7.180;2022-08-03T08:37:48;27.10;23.70
37956;DHT22;23776;51.592;7.180;2022-08-03T08:40:15;27.10;1.00
37956;DHT22;23776;51.592;7.180;2022-08-03T08:42:42;27.10;1.00
37956;DHT22;23776;51.592;7.180;2022-08-03T08:45:09;27.30;1.00
37956;DHT22;23776;51.592;7.180;2022-08-03T08:47:38;27.40;1.00
37956;DHT22;23776;51.592;7.180;2022-08-03T08:50:05;27.40;1.00
37956;DHT22;23776;51.592;7.180;2022-08-03T08:52:33;27.50;1.00
37956;DHT22;23776;51.592;7.180;2022-08-03T08:55:03;27.50;1.00
37956;DHT22;23776;51.592;7.180;2022-08-03T08:57:32;27.40;1.00
37956;DHT22;23776;51.592;7.180;2022-08-03T09:00:00;27.50;1.00
37956;DHT22;23776;51.592;7.180;2022-08-03T09:02:29;27.50;1.00
37956;DHT22;23776;51.592;7.180;2022-08-03T09:04:55;27.60;1.00
37956;DHT22;23776;51.592;7.180;2022-08-03T09:07:21;27.70;1.00
37956;DHT22;23776;51.592;7.180;2022-08-03T09:09:47;27.70;1.00
37956;DHT22;23776;51.592;7.180;2022-08-03T09:12:12;27.50;1.00
37956;DHT22;23776;51.592;7.180;2022-08-03T09:14:38;27.50;1.00
37956;DHT22;23776;51.592;7.180;2022-08-03T09:17:04;27.50;1.00
37956;DHT22;23776;51.592;7.180;2022-08-03T09:19:31;27.40;1.00
37956;DHT22;23776;51.592;7.180;2022-08-03T09:22:16;27.40;1.00
37956;DHT22;23776;51.592;7.180;2022-08-03T09:24:59;27.40;1.00
37956;DHT22;23776;51.592;7.180;2022-08-03T09:27:25;27.40;1.00
37956;DHT22;23776;51.592;7.180;2022-08-03T09:29:53;27.40;1.00
37956;DHT22;23776;51.592;7.180;2022-08-03T09:32:23;27.40;1.00
37956;DHT22;23776;51.592;7.180;2022-08-03T09:34:50;27.50;1.00
37956;DHT22;23776;51.592;7.180;2022-08-03T09:37:19;27.50;1.00
37956;DHT22;23776;51.592;7.180;2022-08-03T09:39:45;27.70;1.00
37956;DHT22;23776;51.592;7.180;2022-08-03T09:42:13;27.60;1.00
37956;DHT22;23776;51.592;7.180;2022-08-03T09:44:41;27.70;1.00
37956;DHT22;23776;51.592;7.180;2022-08-03T09:47:09;27.90;1.00
37956;DHT22;23776;51.592;7.180;2022-08-03T09:49:35;28.10;1.00
37956;DHT22;23776;51.592;7.180;2022-08-03T09:52:15;28.20;99.90
37956;DHT22;23776;51.592;7.180;2022-08-03T09:54:43;28.40;99.90
37956;DHT22;23776;51.592;7.180;2022-08-03T09:57:23;28.50;99.90
37956;DHT22;23776;51.592;7.180;2022-08-03T09:59:50;28.60;99.90
37956;DHT22;23776;51.592;7.180;2022-08-03T10:02:25;28.70;99.90
37956;DHT22;23776;51.592;7.180;2022-08-03T10:04:52;28.90;99.90
37956;DHT22;23776;51.592;7.180;2022-08-03T10:07:22;29.10;99.90
37956;DHT22;23776;51.592;7.180;2022-08-03T10:10:00;29.30;99.90
37956;DHT22;23776;51.592;7.180;2022-08-03T10:12:26;29.40;99.90
37956;DHT22;23776;51.592;7.180;2022-08-03T10:14:52;29.30;99.90
37956;DHT22;23776;51.592;7.180;2022-08-03T10:17:19;29.20;99.90
37956;DHT22;23776;51.592;7.180;2022-08-03T10:19:46;29.40;99.90
37956;DHT22;23776;51.592;7.180;2022-08-03T10:22:23;29.50;99.90
37956;DHT22;23776;51.592;7.180;2022-08-03T10:25:06;29.60;99.90
37956;DHT22;23776;51.592;7.180;2022-08-03T10:27:40;29.70;99.90
37956;DHT22;23776;51.592;7.180;2022-08-03T10:30:10;29.70;99.90
37956;DHT22;23776;51.592;7.180;2022-08-03T10:32:50;29.70;99.90
37956;DHT22;23776;51.592;7.180;2022-08-03T10:35:19;29.90;99.90
37956;DHT22;23776;51.592;7.180;2022-08-03T10:37:56;29.80;99.90
37956;DHT22;23776;51.592;7.180;2022-08-03T10:40:26;29.90;99.90
37956;DHT22;23776;51.592;7.180;2022-08-03T10:42:55;29.90;99.90
37956;DHT22;23776;51.592;7.180;2022-08-03T10:45:25;29.90;99.90
37956;DHT22;23776;51.592;7.180;2022-08-03T10:47:53;30.00;99.90
37956;DHT22;23776;51.592;7.180;2022-08-03T10:50:22;30.20;99.90
37956;DHT22;23776;51.592;7.180;2022-08-03T10:53:00;30.20;99.90
37956;DHT22;23776;51.592;7.180;2022-08-03T10:55:38;30.20;99.90
37956;DHT22;23776;51.592;7.180;2022-08-03T11:01:10;30.70;99.90
37956;DHT22;23776;51.592;7.180;2022-08-03T11:06:25;31.00;97.10
37956;DHT22;23776;51.592;7.180;2022-08-03T11:11:42;30.90;96.10
37956;DHT22;23776;51.592;7.180;2022-08-03T11:14:14;30.90;97.70
37956;DHT22;23776;51.592;7.180;2022-08-03T11:16:48;30.90;98.10
37956;DHT22;23776;51.592;7.180;2022-08-03T11:19:19;31.00;91.00
37956;DHT22;23776;51.592;7.180;2022-08-03T11:27:26;31.30;95.60
37956;DHT22;23776;51.592;7.180;2022-08-03T11:40:42;31.80;90.60
37956;DHT22;23776;51.592;7.180;2022-08-03T11:46:08;32.40;83.90
37956;DHT22;23776;51.592;7.180;2022-08-03T11:48:43;32.00;72.10
37956;DHT22;23776;51.592;7.180;2022-08-03T11:51:27;32.00;82.40
37956;DHT22;23776;51.592;7.180;2022-08-03T11:53:57;32.10;78.30
37956;DHT22;23776;51.592;7.180;2022-08-03T11:56:24;32.10;77.80
37956;DHT22;23776;51.592;7.180;2022-08-03T11:58:53;32.20;66.90
37956;DHT22;23776;51.592;7.180;2022-08-03T12:01:21;32.30;76.60
37956;DHT22;23776;51.592;7.180;2022-08-03T12:03:47;32.40;70.60
37956;DHT22;23776;51.592;7.180;2022-08-03T12:06:15;32.60;70.80
37956;DHT22;23776;51.592;7.180;2022-08-03T12:08:42;32.60;56.60
37956;DHT22;23776;51.592;7.180;2022-08-03T12:11:10;32.60;66.20
37956;DHT22;23776;51.592;7.180;2022-08-03T12:16:02;32.70;58.90
37956;DHT22;23776;51.592;7.180;2022-08-03T12:18:28;33.10;59.80
37956;DHT22;23776;51.592;7.180;2022-08-03T12:21:07;33.30;56.80
37956;DHT22;23776;51.592;7.180;2022-08-03T12:23:33;33.70;51.90
37956;DHT22;23776;51.592;7.180;2022-08-03T12:26:05;34.20;52.50
37956;DHT22;23776;51.592;7.180;2022-08-03T12:28:31;34.90;51.10
37956;DHT22;23776;51.592;7.180;2022-08-03T12:31:04;35.40;48.40
37956;DHT22;23776;51.592;7.180;2022-08-03T12:33:31;35.50;41.00
37956;DHT22;23776;51.592;7.180;2022-08-03T12:36:08;35.50;38.30
37956;DHT22;23776;51.592;7.180;2022-08-03T12:38:36;35.70;28.80
37956;DHT22;23776;51.592;7.180;2022-08-03T12:41:07;35.70;37.40
37956;DHT22;23776;51.592;7.180;2022-08-03T12:43:36;35.60;33.40
37956;DHT22;23776;51.592;7.180;2022-08-03T12:46:17;34.60;30.60
37956;DHT22;23776;51.592;7.180;2022-08-03T12:49:05;35.80;22.90
37956;DHT22;23776;51.592;7.180;2022-08-03T12:54:22;35.80;28.80
37956;DHT22;23776;51.592;7.180;2022-08-03T12:59:26;36.80;25.30
37956;DHT22;23776;51.592;7.180;2022-08-03T13:01:52;37.90;25.70
37956;DHT22;23776;51.592;7.180;2022-08-03T13:04:26;39.00;23.70
37956;DHT22;23776;51.592;7.180;2022-08-03T13:07:06;38.80;20.50
37956;DHT22;23776;51.592;7.180;2022-08-03T13:09:44;39.10;18.80
37956;DHT22;23776;51.592;7.180;2022-08-03T13:12:18;40.30;17.30
37956;DHT22;23776;51.592;7.180;2022-08-03T13:14:46;41.00;15.80
37956;DHT22;23776;51.592;7.180;2022-08-03T13:17:12;41.40;13.00
37956;DHT22;23776;51.592;7.180;2022-08-03T13:19:39;41.50;10.90
37956;DHT22;23776;51.592;7.180;2022-08-03T13:24:41;42.40;8.50
37956;DHT22;23776;51.592;7.180;2022-08-03T13:27:07;42.80;8.60
37956;DHT22;23776;51.592;7.180;2022-08-03T13:29:33;43.10;6.80
37956;DHT22;23776;51.592;7.180;2022-08-03T13:32:00;43.40;4.80
37956;DHT22;23776;51.592;7.180;2022-08-03T13:34:25;43.50;5.00
37956;DHT22;23776;51.592;7.180;2022-08-03T13:36:52;44.20;3.40
37956;DHT22;23776;51.592;7.180;2022-08-03T13:39:17;44.40;3.00
37956;DHT22;23776;51.592;7.180;2022-08-03T13:41:44;44.60;2.40
37956;DHT22;23776;51.592;7.180;2022-08-03T13:44:10;44.60;1.00
37956;DHT22;23776;51.592;7.180;2022-08-03T13:46:35;42.40;1.00
37956;DHT22;23776;51.592;7.180;2022-08-03T13:49:01;41.50;1.00
37956;DHT22;23776;51.592;7.180;2022-08-03T13:51:27;42.20;1.00
37956;DHT22;23776;51.592;7.180;2022-08-03T13:53:52;43.00;1.00
37956;DHT22;23776;51.592;7.180;2022-08-03T13:56:18;42.70;1.00
37956;DHT22;23776;51.592;7.180;2022-08-03T13:58:44;44.10;1.00
37956;DHT22;23776;51.592;7.180;2022-08-03T14:01:10;44.20;1.00
37956;DHT22;23776;51.592;7.180;2022-08-03T14:03:35;42.00;1.00
37956;DHT22;23776;51.592;7.180;2022-08-03T14:06:01;42.80;1.00
37956;DHT22;23776;51.592;7.180;2022-08-03T14:08:27;43.50;1.00
37956;DHT22;23776;51.592;7.180;2022-08-03T14:10:52;44.20;1.00
37956;DHT22;23776;51.592;7.180;2022-08-03T14:13:18;44.30;1.00
37956;DHT22;23776;51.592;7.180;2022-08-03T14:15:45;45.00;1.00
37956;DHT22;23776;51.592;7.180;2022-08-03T14:18:11;45.00;1.00
37956;DHT22;23776;51.592;7.180;2022-08-03T14:20:37;45.20;1.00
37956;DHT22;23776;51.592;7.180;2022-08-03T14:23:02;43.80;1.00
37956;DHT22;23776;51.592;7.180;2022-08-03T14:25:28;42.10;1.00
37956;DHT22;23776;51.592;7.180;2022-08-03T14:27:55;41.10;1.00
37956;DHT22;23776;51.592;7.180;2022-08-03T14:30:20;39.70;1.00
37956;DHT22;23776;51.592;7.180;2022-08-03T14:32:46;38.60;1.00
37956;DHT22;23776;51.592;7.180;2022-08-03T14:35:12;39.50;1.00
37956;DHT22;23776;51.592;7.180;2022-08-03T14:37:37;40.80;1.00
37956;DHT22;23776;51.592;7.180;2022-08-03T14:40:04;41.90;1.00
37956;DHT22;23776;51.592;7.180;2022-08-03T14:42:30;42.40;1.00
37956;DHT22;23776;51.592;7.180;2022-08-03T14:44:55;42.10;1.00
37956;DHT22;23776;51.592;7.180;2022-08-03T14:47:21;42.50;1.00
37956;DHT22;23776;51.592;7.180;2022-08-03T14:49:46;40.80;1.00
37956;DHT22;23776;51.592;7.180;2022-08-03T14:52:12;40.00;1.00
37956;DHT22;23776;51.592;7.180;2022-08-03T14:54:37;41.50;1.00
37956;DHT22;23776;51.592;7.180;2022-08-03T14:57:03;43.30;1.00
37956;DHT22;23776;51.592;7.180;2022-08-03T14:59:29;45.60;1.00
37956;DHT22;23776;51.592;7.180;2022-08-03T15:01:55;45.80;1.00
37956;DHT22;23776;51.592;7.180;2022-08-03T15:04:21;44.90;1.00
37956;DHT22;23776;51.592;7.180;2022-08-03T15:06:46;43.90;1.00
37956;DHT22;23776;51.592;7.180;2022-08-03T15:09:12;43.80;1.00
37956;DHT22;23776;51.592;7.180;2022-08-03T15:11:38;43.90;1.00
37956;DHT22;23776;51.592;7.180;2022-08-03T15:14:03;43.60;1.00
37956;DHT22;23776;51.592;7.180;2022-08-03T15:16:29;42.90;1.00
37956;DHT22;23776;51.592;7.180;2022-08-03T15:18:55;43.70;1.00
37956;DHT22;23776;51.592;7.180;2022-08-03T15:21:20;43.70;1.00
37956;DHT22;23776;51.592;7.180;2022-08-03T15:23:46;44.60;1.00
37956;DHT22;23776;51.592;7.180;2022-08-03T15:26:11;45.80;1.00
37956;DHT22;23776;51.592;7.180;2022-08-03T15:28:37;46.40;1.00
37956;DHT22;23776;51.592;7.180;2022-08-03T15:31:03;46.40;1.00
37956;DHT22;23776;51.592;7.180;2022-08-03T15:33:29;46.00;1.00
37956;DHT22;23776;51.592;7.180;2022-08-03T15:35:55;45.90;1.00
37956;DHT22;23776;51.592;7.180;2022-08-03T15:38:21;46.10;1.00
37956;DHT22;23776;51.592;7.180;2022-08-03T15:40:49;45.80;1.00
37956;DHT22;23776;51.592;7.180;2022-08-03T15:43:19;45.30;1.00
37956;DHT22;23776;51.592;7.180;2022-08-03T15:45:45;45.80;1.00
37956;DHT22;23776;51.592;7.180;2022-08-03T15:48:11;46.60;1.00
37956;DHT22;23776;51.592;7.180;2022-08-03T15:50:36;47.30;1.00
37956;DHT22;23776;51.592;7.180;2022-08-03T15:53:03;48.10;1.00
37956;DHT22;23776;51.592;7.180;2022-08-03T15:55:28;49.10;1.00
37956;DHT22;23776;51.592;7.180;2022-08-03T15:57:56;49.70;1.00
37956;DHT22;23776;51.592;7.180;2022-08-03T16:00:22;49.90;1.00
37956;DHT22;23776;51.592;7.180;2022-08-03T16:02:47;50.40;1.00
37956;DHT22;23776;51.592;7.180;2022-08-03T16:05:13;49.50;1.00
37956;DHT22;23776;51.592;7.180;2022-08-03T16:07:39;48.40;1.00
37956;DHT22;23776;51.592;7.180;2022-08-03T16:10:11;48.10;1.00
37956;DHT22;23776;51.592;7.180;2022-08-03T16:12:37;47.80;1.00
37956;DHT22;23776;51.592;7.180;2022-08-03T16:15:04;47.20;1.00
37956;DHT22;23776;51.592;7.180;2022-08-03T16:17:30;45.80;1.00
37956;DHT22;23776;51.592;7.180;2022-08-03T16:19:56;45.40;1.00
37956;DHT22;23776;51.592;7.180;2022-08-03T16:22:22;45.30;1.00
37956;DHT22;23776;51.592;7.180;2022-08-03T16:24:48;44.80;1.00
37956;DHT22;23776;51.592;7.180;2022-08-03T16:27:14;44.50;1.00
37956;DHT22;23776;51.592;7.180;2022-08-03T16:29:39;44.90;1.00
37956;DHT22;23776;51.592;7.180;2022-08-03T16:32:05;45.70;1.00
37956;DHT22;23776;51.592;7.180;2022-08-03T16:34:35;46.10;1.00